Flight Track Log - Related Links

Times and Time Zones

All times are in EST time to prevent confusion due to time zone crossing. See the N400CE flight status page for this flight to view local times or setup timezone preferences in your user account.

Time Position Orientation Groundspeed Altitude Reporting Facility
EST Latitude Longitude Course Direction KTS km/h meters Rate Location/Type
Mon 12:42:23 35.4686 -82.6644 180° South 186 344 2,012  Level Atlanta Center
Mon 12:43:23 35.4289 -82.6522 166° South 136 253 2,286 229 Climbing Atlanta Center
Mon 12:44:00 35.1410 -82.5149 180° South  Level Estimated
Mon 12:44:23 35.3911 -82.6478 175° South 142 262 2,469  Level Atlanta Center
Mon 12:45:23 35.3494 -82.6408 172° South 142 262 2,713 244 Climbing Atlanta Center
Mon 12:46:23 35.3075 -82.6389 178° South 142 262 2,957 183 Climbing Atlanta Center
Mon 12:47:23 35.2658 -82.6372 178° South 142 262 3,078 137 Climbing Atlanta Center
Mon 12:48:23 35.2178 -82.6406 183° South 148 274 3,231 152 Climbing Atlanta Center
Mon 12:49:23 35.1739 -82.6286 167° South 158 293 3,383 152 Climbing Atlanta Center
Mon 12:50:23 35.1300 -82.6217 173° South 163 303 3,536 168 Climbing Atlanta Center
Mon 12:51:23 35.0864 -82.6225 181° South 163 303 3,719 183 Climbing Atlanta Center
Mon 12:52:23 35.0403 -82.6181 175° South 158 293 3,901 168 Climbing Atlanta Center
Mon 12:53:23 34.9986 -82.6111 172° South 158 293 4,054 183 Climbing Atlanta Center
Mon 12:54:23 34.9525 -82.6094 178° South 158 293 4,267 198 Climbing Atlanta Center
Mon 12:55:23 34.9067 -82.6028 173° South 158 293 4,450 183 Climbing Atlanta Center
Mon 12:56:23 34.8647 -82.5958 172° South 158 293 4,633 183 Climbing Atlanta Center
Mon 12:57:23 34.8208 -82.5889 173° South 158 293 4,816 183 Climbing Atlanta Center
Mon 12:58:23 34.7769 -82.5847 176° South 158 293 4,999 152 Climbing Atlanta Center
Mon 12:59:23 34.7331 -82.5778 173° South 158 293 5,121 107 Climbing Atlanta Center
Mon 13:00:23 34.6869 -82.5711 173° South 163 303 5,212 30 Climbing Atlanta Center
Mon 13:01:23 34.6308 -82.5694 179° South 175 323 5,182 -15 Descending Atlanta Center
Mon 13:02:23 34.5806 -82.5653 176° South 180 333 5,182  Level Atlanta Center
Mon 13:03:23 34.5283 -82.5639 179° South 180 333 5,182  Level Atlanta Center
Mon 13:04:23 34.4761 -82.5572 174° South 180 333 5,182  Level Atlanta Center
Mon 13:05:23 34.4219 -82.5531 176° South 185 343 5,182  Level Atlanta Center
Mon 13:06:23 34.3717 -82.5489 176° South 185 343 5,182  Level Atlanta Center
Mon 13:07:23 34.3175 -82.5447 176° South 185 343 5,182  Level Atlanta Center
Mon 13:08:23 34.2631 -82.5408 177° South 196 364 5,182  Level Atlanta Center
Mon 13:09:23 34.2108 -82.5367 176° South 196 364 5,182  Level Atlanta Center
Mon 13:10:23 34.1586 -82.5325 176° South 196 364 5,182  Level Atlanta Center
Mon 13:11:23 34.0958 -82.5311 179° South 203 377 5,182  Level Atlanta Center
Mon 13:12:23 34.0436 -82.5247 174° South 203 377 5,182  Level Atlanta Center
Mon 13:13:23 33.9914 -82.5181 174° South 194 359 5,182  Level Atlanta Center
Mon 13:14:23 33.9392 -82.5139 176° South 194 359 5,182  Level Atlanta Center
Mon 13:15:23 33.8869 -82.5050 172° South 204 378 5,182  Level Atlanta Center
Mon 13:16:23 33.8325 -82.5008 176° South 204 378 5,182  Level Atlanta Center
Mon 13:17:23 33.7825 -82.4967 176° South 188 348 5,182  Level Atlanta Center
Mon 13:18:23 33.7219 -82.4928 177° South 209 388 5,182  Level Atlanta Center
Mon 13:19:23 33.6675 -82.4864 174° South 198 367 5,182  Level Atlanta Center
Mon 13:20:23 33.6089 -82.4800 175° South 198 367 5,182 15 Level Atlanta Center
Mon 13:21:23 33.5589 -82.4733 174° South 193 357 5,212 15 Climbing Atlanta Center
Mon 13:22:23 33.5067 -82.4642 172° South 198 367 5,212  Level Atlanta Center
Mon 13:23:23 33.4500 -82.4578 175° South 203 377 5,212 -15 Level Atlanta Center
Mon 13:24:23 33.3958 -82.4514 174° South 203 377 5,182  Descending Atlanta Center
Mon 13:25:23 33.3394 -82.4475 177° South 198 367 5,212 15 Climbing Atlanta Center
Mon 13:26:23 33.2869 -82.4358 169° South 192 356 5,212  Level Atlanta Center
Mon 13:27:23 33.2328 -82.4319 177° South 197 365 5,212 -15 Level Atlanta Center
Mon 13:28:23 33.1806 -82.4281 176° South 202 373 5,182  Descending Atlanta Center
Mon 13:29:23 33.1261 -82.4217 174° South 202 373 5,212  Climbing Atlanta Center
Mon 13:30:23 33.0717 -82.4153 174° South 202 373 5,182 -15 Descending Atlanta Center
Mon 13:31:23 33.0175 -82.4111 176° South 197 365 5,182 15 Level Atlanta Center
Mon 13:32:23 32.9653 -82.4072 176° South 197 365 5,212  Climbing Atlanta Center
Mon 13:33:23 32.9086 -82.4008 175° South 197 365 5,182 -15 Descending Atlanta Center
Mon 13:34:23 32.8564 -82.3944 174° South 197 365 5,182 15 Level Atlanta Center
Mon 13:35:23 32.8042 -82.3928 178° South 197 365 5,212  Climbing Atlanta Center
Mon 13:36:23 32.7478 -82.3867 175° South 197 365 5,182 -15 Descending Atlanta Center
Mon 13:37:23 32.6956 -82.3778 172° South 197 365 5,182  Level Atlanta Center
Mon 13:39:07 32.6039 -82.3647 173° South 198 367 5,182  Level Jacksonville Center
Mon 13:40:07 32.5517 -82.3628 178° South 198 367 5,182  Level Jacksonville Center
Mon 13:41:07 32.4972 -82.3581 176° South 198 367 5,182  Level Jacksonville Center
Mon 13:42:07 32.4450 -82.3511 174° South 198 367 5,182  Level Jacksonville Center
Mon 13:43:07 32.3928 -82.3439 173° South 198 367 5,182  Level Jacksonville Center
Mon 13:44:07 32.3386 -82.3247 163° South 198 367 5,182  Level Jacksonville Center
Mon 13:45:07 32.2861 -82.3003 159° South 206 381 5,182  Level Jacksonville Center
Mon 13:46:07 32.2361 -82.2811 162° South 206 381 5,182  Level Jacksonville Center
Mon 13:47:07 32.1794 -82.2569 160° South 206 381 5,182  Level Jacksonville Center
Mon 13:48:07 32.1314 -82.2350 159° South 206 381 5,182  Level Jacksonville Center
Mon 13:49:07 32.0728 -82.2111 161° South 206 381 5,182  Level Jacksonville Center
Mon 13:50:07 32.0164 -82.1869 160° South 206 381 5,182  Level Jacksonville Center
Mon 13:51:07 31.9683 -82.1678 161° South 206 381 5,182  Level Jacksonville Center
Mon 13:52:07 31.9075 -82.1436 161° South 206 381 5,182  Level Jacksonville Center
Mon 13:53:07 31.8531 -82.1222 162° South 211 391 5,182  Level Jacksonville Center
Mon 13:54:07 31.8050 -82.1006 159° South 206 381 5,182  Level Jacksonville Center
Mon 13:55:07 31.7464 -82.0767 161° South 206 381 5,182  Level Jacksonville Center
Mon 13:56:07 31.6961 -82.0550 160° South 206 381 5,182  Level Jacksonville Center
Mon 13:57:07 31.6375 -82.0286 159° South 206 381 5,182 -30 Level Jacksonville Center
Mon 13:58:07 31.5808 -82.0072 162° South 206 381 5,121 -61 Descending Jacksonville Center
Mon 13:59:07 31.5306 -81.9883 162° South 215 398 5,060 -61 Descending Jacksonville Center
Mon 14:00:07 31.4658 -81.9622 161° South 215 398 4,999 -61 Descending Jacksonville Center
Mon 14:01:07 31.4156 -81.9481 166° South 220 407 4,938 -46 Descending Jacksonville Center
Mon 14:02:07 31.3592 -81.9292 164° South 220 407 4,907 -15 Descending Jacksonville Center
Mon 14:03:07 31.3044 -81.8933 151° Southeast 220 407 4,907  Level Jacksonville Center
Mon 14:04:07 31.2542 -81.8550 147° Southeast 220 407 4,907  Level Jacksonville Center
Mon 14:05:07 31.2078 -81.8142 143° Southeast 220 407 4,907  Level Jacksonville Center
Mon 14:06:07 31.1572 -81.7758 147° Southeast 220 407 4,907  Level Jacksonville Center
Mon 14:07:07 31.1069 -81.7375 147° Southeast 214 396 4,907  Level Jacksonville Center
Mon 14:08:07 31.0564 -81.6994 147° Southeast 214 396 4,907  Level Jacksonville Center
Mon 14:09:07 31.0081 -81.6686 151° Southeast 214 396 4,907  Level Jacksonville Center
Mon 14:10:07 30.9619 -81.6328 146° Southeast 209 388 4,907 -15 Level Jacksonville Center
Mon 14:11:07 30.9175 -81.5969 145° Southeast 204 378 4,877  Descending Jacksonville Center
Mon 14:12:08 30.8733 -81.5589 144° Southeast 198 367 4,907 15 Climbing Jacksonville Center
Mon 14:13:07 30.8250 -81.5258 150° Southeast 192 356 4,907  Level Jacksonville Center
Mon 14:14:07 30.7808 -81.4900 145° Southeast 192 356 4,907  Level Jacksonville Center
Mon 14:15:07 30.7344 -81.4569 149° Southeast 192 356 4,907  Level Jacksonville Center
Mon 14:16:07 30.6844 -81.4578 181° South 174 322 4,907  Level Jacksonville Center
Mon 14:17:07 30.6342 -81.4586 181° South 174 322 4,907  Level Jacksonville Center
Mon 14:18:07 30.5822 -81.4664 187° South 185 343 4,907  Level Jacksonville Center
Mon 14:19:07 30.5300 -81.4722 185° South 185 343 4,907  Level Jacksonville Center
Mon 14:20:07 30.4778 -81.4728 181° South 190 352 4,907  Level Jacksonville Center
Mon 14:21:07 30.4278 -81.4761 183° South 190 352 4,907  Level Jacksonville Center
Mon 14:22:07 30.3778 -81.4911 195° South 190 352 4,907 -15 Level Jacksonville Center
Mon 14:23:07 30.3300 -81.5039 193° South 185 343 4,877 -15 Descending Jacksonville Center
Mon 14:24:07 30.2800 -81.5142 190° South 185 343 4,877 15 Level Jacksonville Center
Mon 14:25:07 30.2300 -81.5269 192° South 185 343 4,907 15 Climbing Jacksonville Center
Mon 14:26:07 30.1822 -81.5494 202° Southwest 185 343 4,907  Level Jacksonville Center
Mon 14:27:07 30.1344 -81.5739 204° Southwest 190 352 4,907  Level Jacksonville Center
Mon 14:28:07 30.0867 -81.5964 202° Southwest 190 352 4,907  Level Jacksonville Center
Mon 14:29:07 30.0389 -81.6161 200° South 190 352 4,907  Level Jacksonville Center
Mon 14:30:07 29.9931 -81.6408 205° Southwest 190 352 4,907 -15 Level Jacksonville Center
Mon 14:31:07 29.9494 -81.6700 210° Southwest 190 352 4,877  Descending Jacksonville Center
Mon 14:32:07 29.9081 -81.6969 209° Southwest 190 352 4,907 15 Climbing Jacksonville Center
Mon 14:33:07 29.8644 -81.7286 212° Southwest 179 332 4,907 -15 Level Jacksonville Center
Mon 14:34:07 29.8208 -81.7578 210° Southwest 179 332 4,877 -15 Descending Jacksonville Center
Mon 14:35:07 29.7775 -81.7869 210° Southwest 179 332 4,877  Level Jacksonville Center
Mon 14:36:07 29.7358 -81.8161 211° Southwest 179 332 4,877  Level Jacksonville Center
Mon 14:37:07 29.6922 -81.8453 210° Southwest 179 332 4,877 30 Level Jacksonville Center
Mon 14:38:07 29.6486 -81.8722 208° Southwest 179 332 4,938 61 Climbing Jacksonville Center
Mon 14:39:07 29.6050 -81.8964 206° Southwest 179 332 4,999 61 Climbing Jacksonville Center
Mon 14:40:07 29.5633 -81.9208 207° Southwest 179 332 5,060 46 Climbing Jacksonville Center
Mon 14:41:07 29.5153 -81.9214 181° South 169 312 5,090 46 Climbing Jacksonville Center
Mon 14:42:07 29.4611 -81.9100 170° South 169 312 5,151 61 Climbing Jacksonville Center
Mon 14:43:07 29.4108 -81.9056 176° South 179 332 5,212 15 Climbing Jacksonville Center
Mon 14:44:07 29.3567 -81.8989 174° South 185 343 5,182 -15 Descending Jacksonville Center
Mon 14:45:07 29.3022 -81.8947 176° South 196 364 5,182  Level Jacksonville Center
Mon 14:46:07 29.2458 -81.8906 176° South 196 364 5,182  Level Jacksonville Center
Mon 14:47:07 29.2000 -81.8817 170° South 196 364 5,182  Level Jacksonville Center
Mon 14:48:07 29.1436 -81.8822 180° South 196 364 5,182 -15 Level Jacksonville Center
Mon 14:49:07 29.0914 -81.8731 171° South 196 364 5,151  Descending Jacksonville Center
Mon 14:50:07 29.0328 -81.8689 176° South 196 364 5,182 15 Climbing Jacksonville Center
Mon 14:51:07 28.9828 -81.8625 174° South 196 364 5,182  Level Jacksonville Center
Mon 14:52:07 28.9219 -81.8558 175° South 196 364 5,182  Level Jacksonville Center
Mon 14:53:07 28.8719 -81.8494 174° South 196 364 5,182  Level Jacksonville Center
Mon 14:54:07 28.8175 -81.8406 172° South 196 364 5,182  Level Jacksonville Center
Mon 14:55:07 28.7675 -81.8339 173° South 196 364 5,182 -46 Level Jacksonville Center
Mon 14:56:07 28.7111 -81.8275 174° South 196 364 5,090 -122 Descending Jacksonville Center
Mon 14:57:07 28.6547 -81.8256 178° South 201 372 4,938 -30 Descending Jacksonville Center
Mon 14:58:07 28.6003 -81.8239 178° South 201 372 5,029 30 Climbing Jacksonville Center
Mon 14:59:07 28.5503 -81.8197 176° South 194 359 4,999 -15 Descending Jacksonville Center
Mon 15:00:07 28.4919 -81.8225 182° South 194 359 4,999  Level Jacksonville Center
Mon 15:01:39 28.4192 -81.8225 180° South 198 367 4,999  Level Miami Center
Mon 15:02:39 28.3631 -81.8225 180° South 198 367 4,999 15 Level Miami Center
Mon 15:03:39 28.3108 -81.8225 180° South 198 367 5,029 15 Climbing Miami Center
Mon 15:04:39 28.2586 -81.8225 180° South 198 367 5,029  Level Miami Center
Mon 15:05:39 28.2044 -81.8203 178° South 198 367 5,029  Level Miami Center
Mon 15:06:39 28.1522 -81.8203 180° South 198 367 5,029  Level Miami Center
Mon 15:07:39 28.0981 -81.8203 180° South 198 367 5,029  Level Miami Center
Mon 15:08:39 28.0439 -81.8203 180° South 198 367 5,029  Level Miami Center
Mon 15:09:39 27.9897 -81.8203 180° South 198 367 5,029  Level Miami Center
Mon 15:10:39 27.9353 -81.8203 180° South 198 367 5,029  Level Miami Center
Mon 15:11:39 27.8811 -81.8200 180° South 198 367 5,029  Level Miami Center
Mon 15:12:39 27.8269 -81.8200 180° South 198 367 5,029  Level Miami Center
Mon 15:13:39 27.7642 -81.8197 180° South 198 367 5,029  Level Miami Center
Mon 15:14:39 27.7100 -81.8219 182° South 198 367 5,029  Level Miami Center
Mon 15:15:39 27.6556 -81.8219 180° South 198 367 5,029  Level Miami Center
Mon 15:16:39 27.6056 -81.8222 180° South 198 367 5,029  Level Miami Center
Mon 15:17:39 27.5431 -81.8219 180° South 198 367 5,029 -61 Level Miami Center
Mon 15:18:39 27.4867 -81.8217 180° South 198 367 4,907 -183 Descending Miami Center
Mon 15:19:39 27.4261 -81.8239 182° South 203 377 4,663 -229 Descending Miami Center
Mon 15:20:39 27.3633 -81.8258 182° South 219 406 4,450 -183 Descending Miami Center
Mon 15:21:39 27.3028 -81.8303 184° South 219 406 4,298 -183 Descending Miami Center
Mon 15:22:39 27.2442 -81.8322 182° South 219 406 4,084 -244 Descending Miami Center
Mon 15:23:39 27.1814 -81.8367 184° South 219 406 3,810 -305 Descending Miami Center
Mon 15:24:39 27.1208 -81.8386 182° South 219 406 3,475 -305 Descending Miami Center
Mon 15:25:39 27.0581 -81.8406 182° South 219 406 3,200 -351 Descending Miami Center
Mon 15:26:39 26.9975 -81.8475 186° South 224 415 2,774 -396 Descending Miami Center
Mon 15:27:39 26.9347 -81.8517 183° South 224 415 2,408 -396 Descending Miami Center
Mon 15:28:39 26.8719 -81.8558 183° South 230 426 1,981 -427 Descending Miami Center
Mon 15:29:39 26.8097 -81.8394 167° South 230 426 1,554 -366 Descending Miami Center
Mon 15:30:39 26.7542 -81.8208 163° South 230 426 1,250 -244 Descending Miami Center
Mon 15:31:39 26.7003 -81.8044 165° South 215 398 1,067 -183 Descending Miami Center
Mon 15:33:00 26.6329 -81.7938 172° South  Level FlightAware Approximate
Mon 15:40:00 26.2808 -81.7667 180° South  Level FlightAware Approximate
Mon 15:41:00 26.2303 -81.7667 180° South  Level FlightAware Approximate
Mon 15:42:00 26.1799 -81.7667 180° South  Level FlightAware Approximate
Mon 15:43:00 26.1500 -81.7667 180° South  Level FlightAware Approximate
Mon 15:44:00 26.1524 -81.7756 180° South  Level Estimated
Mon 15:45:00 26.1524 -81.7756 180° South  Level Estimated
Mon 15:46:00 26.1524 -81.7756 180° South  Level Estimated
Mon 15:47:00 26.1524 -81.7756 180° South  Level Estimated
Mon 15:48:00 26.1524 -81.7756 180° South  Level Estimated
Mon 15:49:00 26.1524 -81.7756 180° South  Level Estimated
Mon 15:50:00 26.1524 -81.7756 180° South  Level Estimated
Mon 15:51:00 26.1524 -81.7756 180° South  Level Estimated
Mon 15:52:00 26.1524 -81.7756 180° South  Level Estimated
Mon 15:53:00 26.1524 -81.7756 180° South  Level Estimated

Login

Don't have an account? Register now (free) for customized features, flight alerts, and more!